sensor_id;sensor_type;location;lat;lon;timestamp;P1;durP1;ratioP1;P2;durP2;ratioP2
46731;SDS011;32477;51.474;5.696;2023-06-14T00:00:40;11.07;;;6.82;;
46731;SDS011;32477;51.474;5.696;2023-06-14T00:03:08;13.65;;;7.28;;
46731;SDS011;32477;51.474;5.696;2023-06-14T00:05:35;18.58;;;6.80;;
46731;SDS011;32477;51.474;5.696;2023-06-14T00:08:07;9.35;;;7.05;;
46731;SDS011;32477;51.474;5.696;2023-06-14T00:10:35;10.90;;;6.60;;
46731;SDS011;32477;51.474;5.696;2023-06-14T00:13:01;10.45;;;7.05;;
46731;SDS011;32477;51.474;5.696;2023-06-14T00:15:29;14.27;;;7.00;;
46731;SDS011;32477;51.474;5.696;2023-06-14T00:17:56;11.38;;;6.40;;
46731;SDS011;32477;51.474;5.696;2023-06-14T00:20:26;11.75;;;6.93;;
46731;SDS011;32477;51.474;5.696;2023-06-14T00:22:53;9.52;;;6.13;;
46731;SDS011;32477;51.474;5.696;2023-06-14T00:25:20;11.00;;;6.93;;
46731;SDS011;32477;51.474;5.696;2023-06-14T00:27:47;13.40;;;6.35;;
46731;SDS011;32477;51.474;5.696;2023-06-14T00:30:13;9.60;;;6.93;;
46731;SDS011;32477;51.474;5.696;2023-06-14T00:32:39;12.13;;;6.45;;
46731;SDS011;32477;51.474;5.696;2023-06-14T00:35:05;13.55;;;6.50;;
46731;SDS011;32477;51.474;5.696;2023-06-14T00:37:32;12.10;;;6.82;;
46731;SDS011;32477;51.474;5.696;2023-06-14T00:39:58;14.52;;;6.53;;
46731;SDS011;32477;51.474;5.696;2023-06-14T00:42:27;14.05;;;6.93;;
46731;SDS011;32477;51.474;5.696;2023-06-14T00:44:53;9.98;;;6.35;;
46731;SDS011;32477;51.474;5.696;2023-06-14T00:47:19;17.58;;;7.03;;
46731;SDS011;32477;51.474;5.696;2023-06-14T00:49:46;9.60;;;6.28;;
46731;SDS011;32477;51.474;5.696;2023-06-14T00:52:16;12.23;;;5.93;;
46731;SDS011;32477;51.474;5.696;2023-06-14T00:54:42;12.27;;;7.35;;
46731;SDS011;32477;51.474;5.696;2023-06-14T00:57:12;18.75;;;6.15;;
46731;SDS011;32477;51.474;5.696;2023-06-14T01:02:08;9.27;;;6.30;;
46731;SDS011;32477;51.474;5.696;2023-06-14T01:04:33;9.95;;;6.20;;
46731;SDS011;32477;51.474;5.696;2023-06-14T01:07:14;10.27;;;5.85;;
46731;SDS011;32477;51.474;5.696;2023-06-14T01:15:01;12.80;;;6.35;;
46731;SDS011;32477;51.474;5.696;2023-06-14T01:17:28;9.73;;;6.35;;
46731;SDS011;32477;51.474;5.696;2023-06-14T01:19:57;10.68;;;6.32;;
46731;SDS011;32477;51.474;5.696;2023-06-14T01:22:26;16.95;;;6.25;;
46731;SDS011;32477;51.474;5.696;2023-06-14T01:24:52;10.48;;;6.22;;
46731;SDS011;32477;51.474;5.696;2023-06-14T01:27:23;9.90;;;5.82;;
46731;SDS011;32477;51.474;5.696;2023-06-14T01:29:53;11.63;;;5.63;;
46731;SDS011;32477;51.474;5.696;2023-06-14T01:32:24;10.25;;;5.53;;
46731;SDS011;32477;51.474;5.696;2023-06-14T01:34:53;11.90;;;6.28;;
46731;SDS011;32477;51.474;5.696;2023-06-14T01:37:19;9.70;;;6.18;;
46731;SDS011;32477;51.474;5.696;2023-06-14T01:39:47;11.18;;;5.90;;
46731;SDS011;32477;51.474;5.696;2023-06-14T01:42:15;12.90;;;6.15;;
46731;SDS011;32477;51.474;5.696;2023-06-14T01:44:42;8.90;;;5.45;;
46731;SDS011;32477;51.474;5.696;2023-06-14T01:47:09;14.82;;;5.72;;
46731;SDS011;32477;51.474;5.696;2023-06-14T01:49:35;13.98;;;6.22;;
46731;SDS011;32477;51.474;5.696;2023-06-14T01:52:01;8.80;;;5.72;;
46731;SDS011;32477;51.474;5.696;2023-06-14T01:54:27;10.85;;;5.60;;
46731;SDS011;32477;51.474;5.696;2023-06-14T01:56:54;9.13;;;5.32;;
46731;SDS011;32477;51.474;5.696;2023-06-14T01:59:20;12.73;;;5.53;;
46731;SDS011;32477;51.474;5.696;2023-06-14T02:01:45;9.05;;;5.40;;
46731;SDS011;32477;51.474;5.696;2023-06-14T02:04:11;11.48;;;5.40;;
46731;SDS011;32477;51.474;5.696;2023-06-14T02:06:37;10.43;;;4.40;;
46731;SDS011;32477;51.474;5.696;2023-06-14T02:09:03;11.90;;;5.88;;
46731;SDS011;32477;51.474;5.696;2023-06-14T02:11:29;9.82;;;4.95;;
46731;SDS011;32477;51.474;5.696;2023-06-14T02:13:54;8.35;;;5.53;;
46731;SDS011;32477;51.474;5.696;2023-06-14T02:16:21;14.00;;;5.50;;
46731;SDS011;32477;51.474;5.696;2023-06-14T02:18:47;13.27;;;5.40;;
46731;SDS011;32477;51.474;5.696;2023-06-14T02:21:13;11.98;;;4.70;;
46731;SDS011;32477;51.474;5.696;2023-06-14T02:23:39;10.32;;;4.68;;
46731;SDS011;32477;51.474;5.696;2023-06-14T02:26:05;9.93;;;4.72;;
46731;SDS011;32477;51.474;5.696;2023-06-14T02:28:31;10.32;;;4.82;;
46731;SDS011;32477;51.474;5.696;2023-06-14T02:30:56;6.75;;;4.43;;
46731;SDS011;32477;51.474;5.696;2023-06-14T02:33:22;9.10;;;5.50;;
46731;SDS011;32477;51.474;5.696;2023-06-14T02:35:48;9.02;;;4.85;;
46731;SDS011;32477;51.474;5.696;2023-06-14T02:38:13;12.60;;;5.63;;
46731;SDS011;32477;51.474;5.696;2023-06-14T02:40:39;10.38;;;5.15;;
46731;SDS011;32477;51.474;5.696;2023-06-14T02:43:07;10.27;;;4.75;;
46731;SDS011;32477;51.474;5.696;2023-06-14T02:45:33;10.23;;;4.05;;
46731;SDS011;32477;51.474;5.696;2023-06-14T02:47:59;6.93;;;4.40;;
46731;SDS011;32477;51.474;5.696;2023-06-14T02:50:24;8.82;;;4.82;;
46731;SDS011;32477;51.474;5.696;2023-06-14T02:52:50;8.70;;;4.90;;
46731;SDS011;32477;51.474;5.696;2023-06-14T02:55:17;6.70;;;4.82;;
46731;SDS011;32477;51.474;5.696;2023-06-14T02:57:43;10.95;;;4.97;;
46731;SDS011;32477;51.474;5.696;2023-06-14T03:00:09;11.93;;;4.85;;
46731;SDS011;32477;51.474;5.696;2023-06-14T03:02:38;10.50;;;5.38;;
46731;SDS011;32477;51.474;5.696;2023-06-14T03:05:03;8.32;;;4.35;;
46731;SDS011;32477;51.474;5.696;2023-06-14T03:07:31;8.63;;;5.00;;
46731;SDS011;32477;51.474;5.696;2023-06-14T03:09:57;12.80;;;4.93;;
46731;SDS011;32477;51.474;5.696;2023-06-14T03:12:23;9.05;;;4.90;;
46731;SDS011;32477;51.474;5.696;2023-06-14T03:14:49;8.20;;;4.82;;
46731;SDS011;32477;51.474;5.696;2023-06-14T03:17:15;7.65;;;4.45;;
46731;SDS011;32477;51.474;5.696;2023-06-14T03:19:42;8.32;;;4.72;;
46731;SDS011;32477;51.474;5.696;2023-06-14T03:22:08;9.45;;;4.97;;
46731;SDS011;32477;51.474;5.696;2023-06-14T03:24:36;15.43;;;4.47;;
46731;SDS011;32477;51.474;5.696;2023-06-14T03:27:02;8.82;;;5.38;;
46731;SDS011;32477;51.474;5.696;2023-06-14T03:29:28;9.57;;;4.55;;
46731;SDS011;32477;51.474;5.696;2023-06-14T03:31:58;10.00;;;4.88;;
46731;SDS011;32477;51.474;5.696;2023-06-14T03:34:25;11.20;;;5.13;;
46731;SDS011;32477;51.474;5.696;2023-06-14T03:36:51;8.10;;;5.05;;
46731;SDS011;32477;51.474;5.696;2023-06-14T03:39:17;11.57;;;4.85;;
46731;SDS011;32477;51.474;5.696;2023-06-14T03:41:43;8.02;;;4.63;;
46731;SDS011;32477;51.474;5.696;2023-06-14T03:44:09;8.07;;;4.80;;
46731;SDS011;32477;51.474;5.696;2023-06-14T03:46:34;7.85;;;4.35;;
46731;SDS011;32477;51.474;5.696;2023-06-14T03:49:00;11.43;;;4.35;;
46731;SDS011;32477;51.474;5.696;2023-06-14T03:51:27;8.82;;;4.03;;
46731;SDS011;32477;51.474;5.696;2023-06-14T03:53:53;7.97;;;4.85;;
46731;SDS011;32477;51.474;5.696;2023-06-14T03:56:20;8.18;;;4.70;;
46731;SDS011;32477;51.474;5.696;2023-06-14T03:58:46;7.80;;;4.57;;
46731;SDS011;32477;51.474;5.696;2023-06-14T04:01:12;10.02;;;4.70;;
46731;SDS011;32477;51.474;5.696;2023-06-14T04:03:38;13.45;;;4.90;;
46731;SDS011;32477;51.474;5.696;2023-06-14T04:06:05;6.50;;;4.40;;
46731;SDS011;32477;51.474;5.696;2023-06-14T04:08:31;8.43;;;5.07;;
46731;SDS011;32477;51.474;5.696;2023-06-14T04:10:57;10.40;;;4.85;;
46731;SDS011;32477;51.474;5.696;2023-06-14T04:13:23;9.43;;;4.93;;
46731;SDS011;32477;51.474;5.696;2023-06-14T04:15:48;10.70;;;4.60;;
46731;SDS011;32477;51.474;5.696;2023-06-14T04:18:14;10.82;;;4.70;;
46731;SDS011;32477;51.474;5.696;2023-06-14T04:20:40;8.45;;;4.47;;
46731;SDS011;32477;51.474;5.696;2023-06-14T04:23:15;9.90;;;4.95;;
46731;SDS011;32477;51.474;5.696;2023-06-14T04:25:43;8.95;;;4.38;;
46731;SDS011;32477;51.474;5.696;2023-06-14T04:28:12;12.95;;;5.60;;
46731;SDS011;32477;51.474;5.696;2023-06-14T04:30:40;9.88;;;4.45;;
46731;SDS011;32477;51.474;5.696;2023-06-14T04:33:06;16.08;;;5.18;;
46731;SDS011;32477;51.474;5.696;2023-06-14T04:35:32;6.95;;;4.57;;
46731;SDS011;32477;51.474;5.696;2023-06-14T04:38:01;8.27;;;4.43;;
46731;SDS011;32477;51.474;5.696;2023-06-14T04:40:29;8.88;;;4.45;;
46731;SDS011;32477;51.474;5.696;2023-06-14T04:42:55;10.50;;;4.82;;
46731;SDS011;32477;51.474;5.696;2023-06-14T04:45:22;7.22;;;4.72;;
46731;SDS011;32477;51.474;5.696;2023-06-14T04:47:48;12.05;;;4.30;;
46731;SDS011;32477;51.474;5.696;2023-06-14T04:50:15;9.15;;;4.65;;
46731;SDS011;32477;51.474;5.696;2023-06-14T04:52:43;13.82;;;5.05;;
46731;SDS011;32477;51.474;5.696;2023-06-14T04:55:08;10.30;;;4.90;;
46731;SDS011;32477;51.474;5.696;2023-06-14T04:57:35;11.50;;;5.10;;
46731;SDS011;32477;51.474;5.696;2023-06-14T05:00:00;11.40;;;5.65;;
46731;SDS011;32477;51.474;5.696;2023-06-14T05:02:30;15.13;;;5.32;;
46731;SDS011;32477;51.474;5.696;2023-06-14T05:04:56;10.18;;;5.05;;
46731;SDS011;32477;51.474;5.696;2023-06-14T05:07:22;12.57;;;4.82;;
46731;SDS011;32477;51.474;5.696;2023-06-14T05:09:49;11.55;;;5.47;;
46731;SDS011;32477;51.474;5.696;2023-06-14T05:12:14;10.50;;;5.47;;
46731;SDS011;32477;51.474;5.696;2023-06-14T05:14:43;7.88;;;4.68;;
46731;SDS011;32477;51.474;5.696;2023-06-14T05:17:09;14.73;;;5.10;;
46731;SDS011;32477;51.474;5.696;2023-06-14T05:19:35;8.32;;;4.72;;
46731;SDS011;32477;51.474;5.696;2023-06-14T05:22:00;15.80;;;5.22;;
46731;SDS011;32477;51.474;5.696;2023-06-14T05:24:28;6.93;;;4.22;;
46731;SDS011;32477;51.474;5.696;2023-06-14T05:26:55;13.48;;;4.88;;
46731;SDS011;32477;51.474;5.696;2023-06-14T05:29:21;14.55;;;5.18;;
46731;SDS011;32477;51.474;5.696;2023-06-14T05:31:47;15.82;;;5.55;;
46731;SDS011;32477;51.474;5.696;2023-06-14T05:34:12;10.07;;;3.95;;
46731;SDS011;32477;51.474;5.696;2023-06-14T05:36:38;8.23;;;4.50;;
46731;SDS011;32477;51.474;5.696;2023-06-14T05:39:04;10.20;;;4.07;;
46731;SDS011;32477;51.474;5.696;2023-06-14T05:41:30;7.38;;;4.40;;
46731;SDS011;32477;51.474;5.696;2023-06-14T05:43:56;10.77;;;4.60;;
46731;SDS011;32477;51.474;5.696;2023-06-14T05:46:22;10.85;;;4.50;;
46731;SDS011;32477;51.474;5.696;2023-06-14T05:48:52;18.30;;;4.50;;
46731;SDS011;32477;51.474;5.696;2023-06-14T05:51:18;9.45;;;4.65;;
46731;SDS011;32477;51.474;5.696;2023-06-14T05:53:45;10.52;;;4.38;;
46731;SDS011;32477;51.474;5.696;2023-06-14T05:56:11;11.38;;;4.30;;
46731;SDS011;32477;51.474;5.696;2023-06-14T05:58:37;9.75;;;4.93;;
46731;SDS011;32477;51.474;5.696;2023-06-14T06:01:03;8.55;;;4.68;;
46731;SDS011;32477;51.474;5.696;2023-06-14T06:03:28;11.07;;;4.93;;
46731;SDS011;32477;51.474;5.696;2023-06-14T06:05:54;11.43;;;4.88;;
46731;SDS011;32477;51.474;5.696;2023-06-14T06:08:20;13.10;;;5.30;;
46731;SDS011;32477;51.474;5.696;2023-06-14T06:10:46;11.55;;;5.03;;
46731;SDS011;32477;51.474;5.696;2023-06-14T06:13:11;7.97;;;5.00;;
46731;SDS011;32477;51.474;5.696;2023-06-14T06:15:37;7.95;;;4.78;;
46731;SDS011;32477;51.474;5.696;2023-06-14T06:18:03;9.25;;;4.55;;
46731;SDS011;32477;51.474;5.696;2023-06-14T06:20:28;8.05;;;4.40;;
46731;SDS011;32477;51.474;5.696;2023-06-14T06:22:59;9.70;;;4.15;;
46731;SDS011;32477;51.474;5.696;2023-06-14T06:25:26;10.70;;;4.50;;
46731;SDS011;32477;51.474;5.696;2023-06-14T06:27:52;19.05;;;4.18;;
46731;SDS011;32477;51.474;5.696;2023-06-14T06:30:19;20.55;;;4.82;;
46731;SDS011;32477;51.474;5.696;2023-06-14T06:32:45;14.85;;;4.63;;
46731;SDS011;32477;51.474;5.696;2023-06-14T06:35:11;9.40;;;4.88;;
46731;SDS011;32477;51.474;5.696;2023-06-14T06:37:41;11.02;;;4.63;;
46731;SDS011;32477;51.474;5.696;2023-06-14T06:40:07;14.07;;;4.25;;
46731;SDS011;32477;51.474;5.696;2023-06-14T06:42:33;7.60;;;4.60;;
46731;SDS011;32477;51.474;5.696;2023-06-14T06:44:59;10.50;;;5.07;;
46731;SDS011;32477;51.474;5.696;2023-06-14T06:47:25;11.13;;;4.47;;
46731;SDS011;32477;51.474;5.696;2023-06-14T06:49:51;8.88;;;4.28;;
46731;SDS011;32477;51.474;5.696;2023-06-14T06:52:16;12.52;;;5.25;;
46731;SDS011;32477;51.474;5.696;2023-06-14T06:54:42;10.98;;;4.80;;
46731;SDS011;32477;51.474;5.696;2023-06-14T06:57:08;7.78;;;4.28;;
46731;SDS011;32477;51.474;5.696;2023-06-14T06:59:34;12.23;;;4.57;;
46731;SDS011;32477;51.474;5.696;2023-06-14T07:02:00;10.85;;;4.68;;
46731;SDS011;32477;51.474;5.696;2023-06-14T07:04:26;10.00;;;4.97;;
46731;SDS011;32477;51.474;5.696;2023-06-14T07:06:51;15.80;;;5.00;;
46731;SDS011;32477;51.474;5.696;2023-06-14T07:09:17;14.10;;;5.32;;
46731;SDS011;32477;51.474;5.696;2023-06-14T07:11:45;22.02;;;5.13;;
46731;SDS011;32477;51.474;5.696;2023-06-14T07:14:12;17.45;;;4.80;;
46731;SDS011;32477;51.474;5.696;2023-06-14T07:16:37;12.50;;;5.03;;
46731;SDS011;32477;51.474;5.696;2023-06-14T07:19:03;10.02;;;4.72;;
46731;SDS011;32477;51.474;5.696;2023-06-14T07:21:29;15.85;;;4.82;;
46731;SDS011;32477;51.474;5.696;2023-06-14T07:23:55;16.55;;;4.55;;
46731;SDS011;32477;51.474;5.696;2023-06-14T07:26:21;25.05;;;5.57;;
46731;SDS011;32477;51.474;5.696;2023-06-14T07:28:48;14.90;;;4.60;;
46731;SDS011;32477;51.474;5.696;2023-06-14T07:31:14;17.67;;;4.93;;
46731;SDS011;32477;51.474;5.696;2023-06-14T07:33:41;10.73;;;4.93;;
46731;SDS011;32477;51.474;5.696;2023-06-14T07:36:07;14.02;;;4.15;;
46731;SDS011;32477;51.474;5.696;2023-06-14T07:38:33;12.63;;;4.57;;
46731;SDS011;32477;51.474;5.696;2023-06-14T07:40:59;14.40;;;4.65;;
46731;SDS011;32477;51.474;5.696;2023-06-14T07:43:25;9.77;;;4.05;;
46731;SDS011;32477;51.474;5.696;2023-06-14T07:45:51;12.27;;;4.22;;
46731;SDS011;32477;51.474;5.696;2023-06-14T07:48:17;10.70;;;4.63;;
46731;SDS011;32477;51.474;5.696;2023-06-14T07:50:42;21.92;;;4.78;;
46731;SDS011;32477;51.474;5.696;2023-06-14T07:53:08;13.98;;;4.03;;
46731;SDS011;32477;51.474;5.696;2023-06-14T07:55:34;9.00;;;3.85;;
46731;SDS011;32477;51.474;5.696;2023-06-14T07:58:02;20.45;;;3.70;;
46731;SDS011;32477;51.474;5.696;2023-06-14T08:00:28;9.50;;;3.95;;
46731;SDS011;32477;51.474;5.696;2023-06-14T08:02:54;9.93;;;3.20;;
46731;SDS011;32477;51.474;5.696;2023-06-14T08:05:23;6.18;;;3.60;;
46731;SDS011;32477;51.474;5.696;2023-06-14T08:07:50;6.13;;;3.33;;
46731;SDS011;32477;51.474;5.696;2023-06-14T08:10:16;9.85;;;3.35;;
46731;SDS011;32477;51.474;5.696;2023-06-14T08:12:42;10.50;;;3.55;;
46731;SDS011;32477;51.474;5.696;2023-06-14T08:15:08;5.82;;;3.20;;
46731;SDS011;32477;51.474;5.696;2023-06-14T08:17:34;5.93;;;2.65;;
46731;SDS011;32477;51.474;5.696;2023-06-14T08:20:00;10.07;;;2.83;;
46731;SDS011;32477;51.474;5.696;2023-06-14T08:22:26;4.05;;;2.70;;
46731;SDS011;32477;51.474;5.696;2023-06-14T08:24:53;9.73;;;3.00;;
46731;SDS011;32477;51.474;5.696;2023-06-14T08:27:19;9.73;;;2.80;;
46731;SDS011;32477;51.474;5.696;2023-06-14T08:29:45;6.82;;;2.70;;
46731;SDS011;32477;51.474;5.696;2023-06-14T08:32:11;7.45;;;2.72;;
46731;SDS011;32477;51.474;5.696;2023-06-14T08:34:37;5.72;;;2.72;;
46731;SDS011;32477;51.474;5.696;2023-06-14T08:37:03;9.80;;;3.10;;
46731;SDS011;32477;51.474;5.696;2023-06-14T08:39:29;6.30;;;2.92;;
46731;SDS011;32477;51.474;5.696;2023-06-14T08:41:54;8.43;;;2.65;;
46731;SDS011;32477;51.474;5.696;2023-06-14T08:44:21;9.07;;;2.92;;
46731;SDS011;32477;51.474;5.696;2023-06-14T08:46:48;7.63;;;2.50;;
46731;SDS011;32477;51.474;5.696;2023-06-14T08:49:14;9.73;;;2.75;;
46731;SDS011;32477;51.474;5.696;2023-06-14T08:51:42;5.50;;;2.55;;
46731;SDS011;32477;51.474;5.696;2023-06-14T08:54:09;7.35;;;2.15;;
46731;SDS011;32477;51.474;5.696;2023-06-14T08:56:37;4.75;;;2.00;;
46731;SDS011;32477;51.474;5.696;2023-06-14T08:59:03;3.92;;;2.10;;
46731;SDS011;32477;51.474;5.696;2023-06-14T09:01:34;7.25;;;2.30;;
46731;SDS011;32477;51.474;5.696;2023-06-14T09:04:01;9.63;;;1.90;;
46731;SDS011;32477;51.474;5.696;2023-06-14T09:06:27;7.38;;;1.70;;
46731;SDS011;32477;51.474;5.696;2023-06-14T09:08:55;2.53;;;1.50;;
46731;SDS011;32477;51.474;5.696;2023-06-14T09:11:23;6.55;;;1.98;;
46731;SDS011;32477;51.474;5.696;2023-06-14T09:13:51;9.90;;;1.73;;
46731;SDS011;32477;51.474;5.696;2023-06-14T09:16:17;5.00;;;1.38;;
46731;SDS011;32477;51.474;5.696;2023-06-14T09:18:43;1.83;;;1.48;;
46731;SDS011;32477;51.474;5.696;2023-06-14T09:21:12;5.03;;;1.77;;
46731;SDS011;32477;51.474;5.696;2023-06-14T09:23:45;2.30;;;1.23;;
46731;SDS011;32477;51.474;5.696;2023-06-14T09:26:16;2.33;;;1.50;;
46731;SDS011;32477;51.474;5.696;2023-06-14T09:28:43;6.72;;;1.60;;
46731;SDS011;32477;51.474;5.696;2023-06-14T09:31:14;8.43;;;1.92;;
46731;SDS011;32477;51.474;5.696;2023-06-14T09:33:42;7.85;;;2.03;;
46731;SDS011;32477;51.474;5.696;2023-06-14T09:36:15;10.90;;;1.67;;
46731;SDS011;32477;51.474;5.696;2023-06-14T09:41:38;4.97;;;1.42;;
46731;SDS011;32477;51.474;5.696;2023-06-14T09:44:06;4.40;;;1.40;;
46731;SDS011;32477;51.474;5.696;2023-06-14T09:46:32;2.35;;;1.48;;
46731;SDS011;32477;51.474;5.696;2023-06-14T09:48:59;3.58;;;1.27;;
46731;SDS011;32477;51.474;5.696;2023-06-14T09:51:26;6.05;;;1.60;;
46731;SDS011;32477;51.474;5.696;2023-06-14T09:53:53;15.90;;;2.33;;
46731;SDS011;32477;51.474;5.696;2023-06-14T09:56:43;6.70;;;2.30;;
46731;SDS011;32477;51.474;5.696;2023-06-14T09:59:10;3.78;;;1.70;;
46731;SDS011;32477;51.474;5.696;2023-06-14T10:01:46;17.02;;;2.28;;
46731;SDS011;32477;51.474;5.696;2023-06-14T10:04:14;12.50;;;2.00;;
46731;SDS011;32477;51.474;5.696;2023-06-14T10:06:45;4.80;;;2.00;;
46731;SDS011;32477;51.474;5.696;2023-06-14T10:09:12;4.63;;;1.70;;
46731;SDS011;32477;51.474;5.696;2023-06-14T10:11:39;3.45;;;1.65;;
46731;SDS011;32477;51.474;5.696;2023-06-14T10:14:09;5.88;;;1.90;;
46731;SDS011;32477;51.474;5.696;2023-06-14T10:19:25;6.53;;;1.85;;
46731;SDS011;32477;51.474;5.696;2023-06-14T10:25:12;2.45;;;1.88;;
46731;SDS011;32477;51.474;5.696;2023-06-14T10:27:38;6.20;;;2.00;;
46731;SDS011;32477;51.474;5.696;2023-06-14T10:30:07;2.75;;;2.05;;
46731;SDS011;32477;51.474;5.696;2023-06-14T10:32:33;2.80;;;1.83;;
46731;SDS011;32477;51.474;5.696;2023-06-14T10:35:00;6.03;;;1.95;;
46731;SDS011;32477;51.474;5.696;2023-06-14T10:37:29;2.65;;;1.70;;
46731;SDS011;32477;51.474;5.696;2023-06-14T10:39:55;2.75;;;1.88;;
46731;SDS011;32477;51.474;5.696;2023-06-14T10:42:21;4.53;;;2.15;;
46731;SDS011;32477;51.474;5.696;2023-06-14T10:44:57;6.85;;;2.05;;
46731;SDS011;32477;51.474;5.696;2023-06-14T10:49:57;12.63;;;2.00;;
46731;SDS011;32477;51.474;5.696;2023-06-14T10:52:29;6.57;;;1.73;;
46731;SDS011;32477;51.474;5.696;2023-06-14T10:55:05;3.28;;;1.40;;
46731;SDS011;32477;51.474;5.696;2023-06-14T10:57:38;5.03;;;1.85;;
46731;SDS011;32477;51.474;5.696;2023-06-14T11:00:05;3.10;;;1.73;;
46731;SDS011;32477;51.474;5.696;2023-06-14T11:05:26;5.93;;;1.88;;
46731;SDS011;32477;51.474;5.696;2023-06-14T11:10:43;7.30;;;1.90;;
46731;SDS011;32477;51.474;5.696;2023-06-14T11:13:12;6.35;;;1.77;;
46731;SDS011;32477;51.474;5.696;2023-06-14T11:15:45;9.40;;;2.25;;
46731;SDS011;32477;51.474;5.696;2023-06-14T11:18:12;2.65;;;1.90;;
46731;SDS011;32477;51.474;5.696;2023-06-14T11:20:39;3.60;;;1.92;;
46731;SDS011;32477;51.474;5.696;2023-06-14T11:23:05;6.32;;;1.95;;
46731;SDS011;32477;51.474;5.696;2023-06-14T11:25:31;4.10;;;1.75;;
46731;SDS011;32477;51.474;5.696;2023-06-14T11:27:57;4.93;;;1.80;;
46731;SDS011;32477;51.474;5.696;2023-06-14T11:30:24;6.45;;;1.38;;
46731;SDS011;32477;51.474;5.696;2023-06-14T11:32:51;3.30;;;1.40;;
46731;SDS011;32477;51.474;5.696;2023-06-14T11:35:18;2.50;;;1.75;;
46731;SDS011;32477;51.474;5.696;2023-06-14T11:37:47;5.32;;;1.90;;
46731;SDS011;32477;51.474;5.696;2023-06-14T11:40:14;6.93;;;1.90;;
46731;SDS011;32477;51.474;5.696;2023-06-14T11:42:40;4.05;;;1.50;;
46731;SDS011;32477;51.474;5.696;2023-06-14T11:45:10;3.85;;;1.50;;
46731;SDS011;32477;51.474;5.696;2023-06-14T11:47:37;7.15;;;1.73;;
46731;SDS011;32477;51.474;5.696;2023-06-14T11:50:04;2.22;;;1.50;;
46731;SDS011;32477;51.474;5.696;2023-06-14T11:52:32;3.90;;;2.20;;
46731;SDS011;32477;51.474;5.696;2023-06-14T11:54:58;14.65;;;2.28;;
46731;SDS011;32477;51.474;5.696;2023-06-14T11:57:24;2.60;;;1.50;;
46731;SDS011;32477;51.474;5.696;2023-06-14T11:59:51;5.90;;;2.00;;
46731;SDS011;32477;51.474;5.696;2023-06-14T12:02:17;5.80;;;1.52;;
46731;SDS011;32477;51.474;5.696;2023-06-14T12:04:44;2.92;;;1.80;;
46731;SDS011;32477;51.474;5.696;2023-06-14T12:07:12;2.17;;;1.73;;
46731;SDS011;32477;51.474;5.696;2023-06-14T12:12:26;2.92;;;1.70;;
46731;SDS011;32477;51.474;5.696;2023-06-14T12:14:52;3.60;;;1.83;;
46731;SDS011;32477;51.474;5.696;2023-06-14T12:17:18;5.40;;;1.58;;
46731;SDS011;32477;51.474;5.696;2023-06-14T12:19:45;2.80;;;1.58;;
46731;SDS011;32477;51.474;5.696;2023-06-14T12:22:14;8.40;;;1.90;;
46731;SDS011;32477;51.474;5.696;2023-06-14T12:24:43;4.50;;;1.63;;
46731;SDS011;32477;51.474;5.696;2023-06-14T12:27:10;4.05;;;1.77;;
46731;SDS011;32477;51.474;5.696;2023-06-14T12:29:44;11.02;;;1.90;;
46731;SDS011;32477;51.474;5.696;2023-06-14T12:32:10;1.80;;;1.48;;
46731;SDS011;32477;51.474;5.696;2023-06-14T12:34:36;3.58;;;1.60;;
46731;SDS011;32477;51.474;5.696;2023-06-14T12:37:02;6.78;;;1.75;;
46731;SDS011;32477;51.474;5.696;2023-06-14T12:39:29;2.90;;;1.45;;
46731;SDS011;32477;51.474;5.696;2023-06-14T12:41:56;7.78;;;1.65;;
46731;SDS011;32477;51.474;5.696;2023-06-14T12:44:22;2.60;;;1.45;;
46731;SDS011;32477;51.474;5.696;2023-06-14T12:46:48;4.25;;;1.50;;
46731;SDS011;32477;51.474;5.696;2023-06-14T12:49:16;4.40;;;2.08;;
46731;SDS011;32477;51.474;5.696;2023-06-14T12:51:42;6.57;;;1.55;;
46731;SDS011;32477;51.474;5.696;2023-06-14T12:54:08;4.32;;;1.55;;
46731;SDS011;32477;51.474;5.696;2023-06-14T12:56:33;2.00;;;1.80;;
46731;SDS011;32477;51.474;5.696;2023-06-14T12:58:59;3.05;;;1.75;;
46731;SDS011;32477;51.474;5.696;2023-06-14T13:01:25;8.52;;;1.60;;
46731;SDS011;32477;51.474;5.696;2023-06-14T13:03:51;2.90;;;1.23;;
46731;SDS011;32477;51.474;5.696;2023-06-14T13:06:20;5.53;;;1.30;;
46731;SDS011;32477;51.474;5.696;2023-06-14T13:08:47;4.35;;;1.50;;
46731;SDS011;32477;51.474;5.696;2023-06-14T13:11:14;3.42;;;2.08;;
46731;SDS011;32477;51.474;5.696;2023-06-14T13:13:39;3.75;;;1.48;;
46731;SDS011;32477;51.474;5.696;2023-06-14T13:16:05;3.47;;;1.60;;
46731;SDS011;32477;51.474;5.696;2023-06-14T13:18:31;4.55;;;1.80;;
46731;SDS011;32477;51.474;5.696;2023-06-14T13:20:56;1.83;;;1.33;;
46731;SDS011;32477;51.474;5.696;2023-06-14T13:23:22;3.13;;;1.27;;
46731;SDS011;32477;51.474;5.696;2023-06-14T13:25:48;1.60;;;1.33;;
46731;SDS011;32477;51.474;5.696;2023-06-14T13:28:16;4.18;;;1.50;;
46731;SDS011;32477;51.474;5.696;2023-06-14T13:30:41;5.10;;;1.05;;
46731;SDS011;32477;51.474;5.696;2023-06-14T13:33:07;5.95;;;1.33;;
46731;SDS011;32477;51.474;5.696;2023-06-14T13:35:33;6.35;;;1.30;;
46731;SDS011;32477;51.474;5.696;2023-06-14T13:37:59;3.97;;;1.05;;
46731;SDS011;32477;51.474;5.696;2023-06-14T13:40:25;8.40;;;1.23;;
46731;SDS011;32477;51.474;5.696;2023-06-14T13:42:51;4.43;;;1.10;;
46731;SDS011;32477;51.474;5.696;2023-06-14T13:45:16;5.13;;;1.20;;
46731;SDS011;32477;51.474;5.696;2023-06-14T13:47:42;5.63;;;1.00;;
46731;SDS011;32477;51.474;5.696;2023-06-14T13:50:08;1.63;;;1.00;;
46731;SDS011;32477;51.474;5.696;2023-06-14T13:52:34;4.28;;;1.30;;
46731;SDS011;32477;51.474;5.696;2023-06-14T13:55:00;3.65;;;0.98;;
46731;SDS011;32477;51.474;5.696;2023-06-14T13:57:25;3.38;;;1.02;;
46731;SDS011;32477;51.474;5.696;2023-06-14T13:59:51;3.63;;;1.13;;
46731;SDS011;32477;51.474;5.696;2023-06-14T14:02:20;6.80;;;1.50;;
46731;SDS011;32477;51.474;5.696;2023-06-14T14:04:46;3.72;;;1.20;;
46731;SDS011;32477;51.474;5.696;2023-06-14T14:07:17;2.30;;;1.00;;
46731;SDS011;32477;51.474;5.696;2023-06-14T14:09:44;1.67;;;1.20;;
46731;SDS011;32477;51.474;5.696;2023-06-14T14:12:10;2.15;;;1.10;;
46731;SDS011;32477;51.474;5.696;2023-06-14T14:14:36;7.78;;;1.17;;
46731;SDS011;32477;51.474;5.696;2023-06-14T14:17:02;2.25;;;1.08;;
46731;SDS011;32477;51.474;5.696;2023-06-14T14:19:27;8.32;;;1.30;;
46731;SDS011;32477;51.474;5.696;2023-06-14T14:21:53;6.38;;;1.25;;
46731;SDS011;32477;51.474;5.696;2023-06-14T14:24:18;6.68;;;1.20;;
46731;SDS011;32477;51.474;5.696;2023-06-14T14:26:44;6.90;;;1.15;;
46731;SDS011;32477;51.474;5.696;2023-06-14T14:29:12;1.20;;;1.10;;
46731;SDS011;32477;51.474;5.696;2023-06-14T14:31:38;1.67;;;1.10;;
46731;SDS011;32477;51.474;5.696;2023-06-14T14:34:03;3.03;;;1.38;;
46731;SDS011;32477;51.474;5.696;2023-06-14T14:36:30;2.13;;;1.10;;
46731;SDS011;32477;51.474;5.696;2023-06-14T14:38:55;2.28;;;1.30;;
46731;SDS011;32477;51.474;5.696;2023-06-14T14:41:21;2.72;;;0.98;;
46731;SDS011;32477;51.474;5.696;2023-06-14T14:43:47;2.63;;;1.13;;
46731;SDS011;32477;51.474;5.696;2023-06-14T14:46:12;5.70;;;1.60;;
46731;SDS011;32477;51.474;5.696;2023-06-14T14:48:38;2.22;;;1.30;;
46731;SDS011;32477;51.474;5.696;2023-06-14T14:51:04;4.35;;;1.20;;
46731;SDS011;32477;51.474;5.696;2023-06-14T14:53:29;4.68;;;1.52;;
46731;SDS011;32477;51.474;5.696;2023-06-14T14:55:55;8.32;;;1.50;;
46731;SDS011;32477;51.474;5.696;2023-06-14T14:58:21;7.57;;;1.45;;
46731;SDS011;32477;51.474;5.696;2023-06-14T15:00:47;5.10;;;1.60;;
46731;SDS011;32477;51.474;5.696;2023-06-14T15:03:13;5.20;;;1.23;;
46731;SDS011;32477;51.474;5.696;2023-06-14T15:05:39;7.47;;;1.42;;
46731;SDS011;32477;51.474;5.696;2023-06-14T15:08:05;3.03;;;1.60;;